createdAt,value
2018-03-31T00:01:01.581Z,8.08
2018-03-31T00:03:28.464Z,8.08
2018-03-31T00:05:55.301Z,8.05
2018-03-31T00:08:22.147Z,7.97
2018-03-31T00:10:48.997Z,7.97
2018-03-31T00:13:15.848Z,7.91
2018-03-31T00:15:42.696Z,7.83
2018-03-31T00:18:09.556Z,7.79
2018-03-31T00:20:36.406Z,7.79
2018-03-31T00:23:03.256Z,7.74
2018-03-31T00:25:30.140Z,7.72
2018-03-31T00:27:56.980Z,7.66
2018-03-31T00:30:23.825Z,7.66
2018-03-31T00:32:50.669Z,7.61
2018-03-31T00:35:17.521Z,7.57
2018-03-31T00:37:44.362Z,7.54
2018-03-31T00:40:11.204Z,7.51
2018-03-31T00:42:38.037Z,7.51
2018-03-31T00:45:04.891Z,7.50
2018-03-31T00:47:31.739Z,7.41
2018-03-31T00:49:58.624Z,7.44
2018-03-31T00:52:25.465Z,7.40
2018-03-31T00:54:52.368Z,7.45
2018-03-31T00:57:19.205Z,7.48
2018-03-31T00:59:46.101Z,7.51
2018-03-31T01:02:13.173Z,7.55
2018-03-31T01:04:40.038Z,7.52
2018-03-31T01:07:06.882Z,7.44
2018-03-31T01:09:33.720Z,7.45
2018-03-31T01:12:00.617Z,7.38
2018-03-31T01:14:27.484Z,7.34
2018-03-31T01:16:54.320Z,7.29
2018-03-31T01:19:21.202Z,7.25
2018-03-31T01:21:48.059Z,7.26
2018-03-31T01:24:14.911Z,7.24
2018-03-31T01:26:41.782Z,7.17
2018-03-31T01:29:08.618Z,7.13
2018-03-31T01:31:35.451Z,7.11
2018-03-31T01:34:02.337Z,7.05
2018-03-31T01:36:29.188Z,7.05
2018-03-31T01:38:56.032Z,6.94
2018-03-31T01:41:22.914Z,6.83
2018-03-31T01:43:49.780Z,6.81
2018-03-31T01:46:16.608Z,6.79
2018-03-31T01:48:43.467Z,6.74
2018-03-31T01:51:10.331Z,6.72
2018-03-31T01:53:37.172Z,6.66
2018-03-31T01:56:04.029Z,6.64
2018-03-31T01:58:30.902Z,6.65
2018-03-31T02:00:57.769Z,6.61
2018-03-31T02:03:24.604Z,6.64
2018-03-31T02:05:51.449Z,6.58
2018-03-31T02:08:18.301Z,6.51
2018-03-31T02:10:45.152Z,6.43
2018-03-31T02:13:12.004Z,6.39
2018-03-31T02:15:38.861Z,6.38
2018-03-31T02:18:05.712Z,6.37
2018-03-31T02:20:32.548Z,6.35
2018-03-31T02:22:59.447Z,6.31
2018-03-31T02:25:26.284Z,6.27
2018-03-31T02:27:53.124Z,6.20
2018-03-31T02:30:19.982Z,6.12
2018-03-31T02:32:46.820Z,6.08
2018-03-31T02:35:13.661Z,6.10
2018-03-31T02:37:40.522Z,6.15
2018-03-31T02:40:07.356Z,6.22
2018-03-31T02:42:34.217Z,6.22
2018-03-31T02:45:01.052Z,6.25
2018-03-31T02:47:27.891Z,6.17
2018-03-31T02:49:54.749Z,6.14
2018-03-31T02:52:21.598Z,6.09
2018-03-31T02:54:48.465Z,6.05
2018-03-31T02:57:15.313Z,6.05
2018-03-31T02:59:42.183Z,6.01
2018-03-31T03:02:09.028Z,6.03
2018-03-31T03:04:35.888Z,6.01
2018-03-31T03:07:02.751Z,6.00
2018-03-31T03:09:29.585Z,5.89
2018-03-31T03:11:56.429Z,5.78
2018-03-31T03:14:23.284Z,5.76
2018-03-31T03:16:50.129Z,5.82
2018-03-31T03:19:17.252Z,5.78
2018-03-31T03:21:44.104Z,5.77
2018-03-31T03:24:11.020Z,5.79
2018-03-31T03:26:37.859Z,5.76
2018-03-31T03:29:04.736Z,5.80
2018-03-31T03:31:31.850Z,5.77
2018-03-31T03:33:58.688Z,5.72
2018-03-31T03:36:25.536Z,5.67
2018-03-31T03:38:52.381Z,5.60
2018-03-31T03:41:19.220Z,5.58
2018-03-31T03:43:46.081Z,5.57
2018-03-31T03:46:12.915Z,5.50
2018-03-31T03:48:39.771Z,5.57
2018-03-31T03:51:06.654Z,5.55
2018-03-31T03:53:33.492Z,5.58
2018-03-31T03:56:00.344Z,5.57
2018-03-31T03:58:27.183Z,5.53
2018-03-31T04:00:54.045Z,5.47
2018-03-31T04:03:20.938Z,5.44
2018-03-31T04:05:47.781Z,5.40
2018-03-31T04:08:15.056Z,5.35
2018-03-31T04:10:41.934Z,5.34
2018-03-31T04:13:08.790Z,5.30
2018-03-31T04:15:35.660Z,5.26
2018-03-31T04:18:02.508Z,5.24
2018-03-31T04:20:29.684Z,5.28
2018-03-31T04:22:56.522Z,5.26
2018-03-31T04:25:23.359Z,5.25
2018-03-31T04:27:50.220Z,5.27
2018-03-31T04:30:17.063Z,5.26
2018-03-31T04:32:44.316Z,5.29
2018-03-31T04:35:11.163Z,5.31
2018-03-31T04:37:38.001Z,5.27
2018-03-31T04:40:04.860Z,5.27
2018-03-31T04:42:31.701Z,5.30
2018-03-31T04:44:58.552Z,5.26
2018-03-31T04:47:25.420Z,5.23
2018-03-31T04:49:52.280Z,5.18
2018-03-31T04:52:19.108Z,5.14
2018-03-31T04:54:45.968Z,5.11
2018-03-31T04:57:12.852Z,5.15
2018-03-31T04:59:39.697Z,5.17
2018-03-31T05:02:06.540Z,5.07
2018-03-31T05:04:33.497Z,5.06
2018-03-31T05:07:00.339Z,5.13
2018-03-31T05:09:27.467Z,5.13
2018-03-31T05:11:54.291Z,5.16
2018-03-31T05:14:21.133Z,5.20
2018-03-31T05:16:47.980Z,5.14
2018-03-31T05:19:14.825Z,5.17
2018-03-31T05:21:41.915Z,5.20
2018-03-31T05:24:08.748Z,5.17
2018-03-31T05:26:36.296Z,5.17
2018-03-31T05:29:03.145Z,5.16
2018-03-31T05:31:30.952Z,5.16
2018-03-31T05:33:57.864Z,5.19
2018-03-31T05:36:28.333Z,5.19
2018-03-31T05:38:55.556Z,5.19
2018-03-31T05:41:22.392Z,5.21
2018-03-31T05:43:49.240Z,5.22
2018-03-31T05:46:16.341Z,5.23
2018-03-31T05:48:43.210Z,5.25
2018-03-31T05:51:10.035Z,5.32
2018-03-31T05:53:36.893Z,5.36
2018-03-31T05:56:03.750Z,5.40
2018-03-31T05:58:30.596Z,5.41
2018-03-31T06:01:03.216Z,5.51
2018-03-31T06:03:30.186Z,5.59
2018-03-31T06:05:56.992Z,5.60
2018-03-31T06:08:23.864Z,5.63
2018-03-31T06:10:50.724Z,5.72
2018-03-31T06:13:17.560Z,5.74
2018-03-31T06:15:44.444Z,5.80
2018-03-31T06:18:11.304Z,5.88
2018-03-31T06:20:38.167Z,5.89
2018-03-31T06:23:05.000Z,5.96
2018-03-31T06:25:31.852Z,6.05
2018-03-31T06:27:58.712Z,6.14
2018-03-31T06:30:25.570Z,6.14
2018-03-31T06:32:52.400Z,6.14
2018-03-31T06:35:19.244Z,6.17
2018-03-31T06:37:46.079Z,6.13
2018-03-31T06:40:12.925Z,6.20
2018-03-31T06:42:39.780Z,6.25
2018-03-31T06:45:06.624Z,6.29
2018-03-31T06:47:33.486Z,6.28
2018-03-31T06:50:00.305Z,6.34
2018-03-31T06:52:27.160Z,6.41
2018-03-31T06:54:54.000Z,6.41
2018-03-31T06:57:20.836Z,6.46
2018-03-31T06:59:48.636Z,6.55
2018-03-31T07:02:15.481Z,6.70
2018-03-31T07:04:42.366Z,6.74
2018-03-31T07:07:09.201Z,6.90
2018-03-31T07:09:36.060Z,6.93
2018-03-31T07:12:02.904Z,7.01
2018-03-31T07:14:29.752Z,7.17
2018-03-31T07:16:56.605Z,7.28
2018-03-31T07:19:23.496Z,7.38
2018-03-31T07:21:50.349Z,7.49
2018-03-31T07:24:17.222Z,7.60
2018-03-31T07:26:44.136Z,7.67
2018-03-31T07:29:10.980Z,7.73
2018-03-31T07:31:37.845Z,7.82
2018-03-31T07:34:04.706Z,7.98
2018-03-31T07:36:31.565Z,8.11
2018-03-31T07:38:58.392Z,8.13
2018-03-31T07:41:25.257Z,8.25
2018-03-31T07:43:52.100Z,8.30
2018-03-31T07:46:18.968Z,8.41
2018-03-31T07:48:45.832Z,8.57
2018-03-31T07:51:12.680Z,8.61
2018-03-31T07:53:39.536Z,8.67
2018-03-31T07:56:06.383Z,8.69
2018-03-31T07:58:33.215Z,8.70
2018-03-31T08:01:00.082Z,8.73
2018-03-31T08:03:26.937Z,8.84
2018-03-31T08:05:54.774Z,8.87
2018-03-31T08:08:22.584Z,8.90
2018-03-31T08:10:51.528Z,8.99
2018-03-31T08:13:18.371Z,9.01
2018-03-31T08:15:45.219Z,9.05
2018-03-31T08:18:12.093Z,9.19
2018-03-31T08:20:38.930Z,9.23
2018-03-31T08:23:05.798Z,9.28
2018-03-31T08:25:32.628Z,9.30
2018-03-31T08:27:59.468Z,9.35
2018-03-31T08:30:26.334Z,9.49
2018-03-31T08:32:53.152Z,9.60
2018-03-31T08:35:19.992Z,9.62
2018-03-31T08:37:46.852Z,9.70
2018-03-31T08:40:13.713Z,9.82
2018-03-31T08:42:40.921Z,9.83
2018-03-31T08:45:07.758Z,10.01
2018-03-31T08:47:34.598Z,10.09
2018-03-31T08:50:01.462Z,10.20
2018-03-31T08:52:28.300Z,10.33
2018-03-31T08:54:55.180Z,10.55
2018-03-31T08:57:22.021Z,10.69
2018-03-31T08:59:48.892Z,10.86
2018-03-31T09:02:15.740Z,11.02
2018-03-31T09:04:42.580Z,11.08
2018-03-31T09:07:09.748Z,11.27
2018-03-31T09:09:36.602Z,11.39
2018-03-31T09:12:03.445Z,11.62
2018-03-31T09:14:30.285Z,11.90
2018-03-31T09:16:57.129Z,12.08
2018-03-31T09:19:23.984Z,12.28
2018-03-31T09:21:50.895Z,12.50
2018-03-31T09:24:17.752Z,12.66
2018-03-31T09:26:44.644Z,12.79
2018-03-31T09:29:11.492Z,12.99
2018-03-31T09:31:38.447Z,13.29
2018-03-31T09:34:05.326Z,13.45
2018-03-31T09:36:32.158Z,13.54
2018-03-31T09:38:59.032Z,13.96
2018-03-31T09:41:25.879Z,14.19
2018-03-31T09:43:52.732Z,14.45
2018-03-31T09:46:19.573Z,14.73
2018-03-31T09:48:46.436Z,15.11
2018-03-31T09:51:13.289Z,15.01
2018-03-31T09:53:40.149Z,15.58
2018-03-31T09:56:07.024Z,16.09
2018-03-31T09:58:33.856Z,16.31
2018-03-31T10:01:03.481Z,16.64
2018-03-31T10:03:30.361Z,17.05
2018-03-31T10:05:57.207Z,17.32
2018-03-31T10:08:24.925Z,17.36
2018-03-31T10:10:51.805Z,17.51
2018-03-31T10:13:18.661Z,17.46
2018-03-31T10:15:45.524Z,17.51
2018-03-31T10:18:12.359Z,17.19
2018-03-31T10:20:39.480Z,17.99
2018-03-31T10:23:06.331Z,17.99
2018-03-31T10:25:33.165Z,17.83
2018-03-31T10:28:00.421Z,17.52
2018-03-31T10:30:27.268Z,17.29
2018-03-31T10:32:54.143Z,17.17
2018-03-31T10:35:22.898Z,17.36
2018-03-31T10:37:49.678Z,17.60
2018-03-31T10:40:16.545Z,17.67
2018-03-31T10:42:43.381Z,17.67
2018-03-31T10:45:10.821Z,18.35
2018-03-31T10:47:37.713Z,19.12
2018-03-31T10:50:05.428Z,19.52
2018-03-31T10:52:32.283Z,19.07
2018-03-31T10:54:59.133Z,18.93
2018-03-31T10:57:26.012Z,19.29
2018-03-31T10:59:52.868Z,19.73
2018-03-31T11:02:19.718Z,19.66
2018-03-31T11:04:46.597Z,18.77
2018-03-31T11:07:13.464Z,18.58
2018-03-31T11:09:40.452Z,19.02
2018-03-31T11:12:07.309Z,19.60
2018-03-31T11:14:34.156Z,19.78
2018-03-31T11:17:01.001Z,19.82
2018-03-31T11:19:27.861Z,19.76
2018-03-31T11:21:54.731Z,19.72
2018-03-31T11:24:21.645Z,19.09
2018-03-31T11:26:48.826Z,19.05
2018-03-31T11:29:15.653Z,19.23
2018-03-31T11:31:42.548Z,18.42
2018-03-31T11:34:09.400Z,18.53
2018-03-31T11:36:36.276Z,18.51
2018-03-31T11:39:03.144Z,19.18
2018-03-31T11:41:30.010Z,19.79
2018-03-31T11:43:56.980Z,19.76
2018-03-31T11:46:23.877Z,19.38
2018-03-31T11:48:50.755Z,19.06
2018-03-31T11:51:17.640Z,18.47
2018-03-31T11:53:44.508Z,18.08
2018-03-31T11:56:11.368Z,17.50
2018-03-31T11:58:38.234Z,17.83
2018-03-31T12:01:05.293Z,17.84
2018-03-31T12:03:32.165Z,17.90
2018-03-31T12:05:59.002Z,18.11
2018-03-31T12:08:25.844Z,17.83
2018-03-31T12:10:52.689Z,17.45
2018-03-31T12:13:19.529Z,17.52
2018-03-31T12:15:46.380Z,17.72
2018-03-31T12:18:13.220Z,17.71
2018-03-31T12:20:40.665Z,17.81
2018-03-31T12:23:07.513Z,17.83
2018-03-31T12:25:34.349Z,18.04
2018-03-31T12:28:01.208Z,17.88
2018-03-31T12:30:28.088Z,17.32
2018-03-31T12:32:54.942Z,17.29
2018-03-31T12:35:21.800Z,17.34
2018-03-31T12:37:48.650Z,17.59
2018-03-31T12:40:15.528Z,17.69
2018-03-31T12:42:42.372Z,17.63
2018-03-31T12:45:09.219Z,17.48
2018-03-31T12:47:36.444Z,17.22
2018-03-31T12:50:03.327Z,16.75
2018-03-31T12:52:30.208Z,16.13
2018-03-31T12:54:57.073Z,15.72
2018-03-31T12:57:23.919Z,15.52
2018-03-31T12:59:50.774Z,15.81
2018-03-31T13:02:17.623Z,16.21
2018-03-31T13:04:44.468Z,16.11
2018-03-31T13:07:11.349Z,16.36
2018-03-31T13:09:38.219Z,16.68
2018-03-31T13:12:05.083Z,17.18
2018-03-31T13:14:32.038Z,17.34
2018-03-31T13:16:58.927Z,17.03
2018-03-31T13:19:25.760Z,16.97
2018-03-31T13:21:52.577Z,17.04
2018-03-31T13:24:19.425Z,16.78
2018-03-31T13:26:46.294Z,17.20
2018-03-31T13:29:13.153Z,17.30
2018-03-31T13:31:40.003Z,17.60
2018-03-31T13:34:06.893Z,17.92
2018-03-31T13:36:33.752Z,17.89
2018-03-31T13:39:00.601Z,18.16
2018-03-31T13:41:27.462Z,18.38
2018-03-31T13:43:54.301Z,17.89
2018-03-31T13:46:21.133Z,17.81
2018-03-31T13:48:47.976Z,17.85
2018-03-31T13:51:14.812Z,18.05
2018-03-31T13:53:42.009Z,17.80
2018-03-31T13:56:08.848Z,17.86
2018-03-31T13:58:35.722Z,17.86
2018-03-31T14:01:02.611Z,17.39
2018-03-31T14:03:29.454Z,17.56
2018-03-31T14:05:56.304Z,17.29
2018-03-31T14:08:23.144Z,17.36
2018-03-31T14:10:49.988Z,17.48
2018-03-31T14:13:16.861Z,17.25
2018-03-31T14:15:43.689Z,17.23
2018-03-31T14:18:10.568Z,17.02
2018-03-31T14:20:37.444Z,17.10
2018-03-31T14:23:04.306Z,16.84
2018-03-31T14:25:32.184Z,16.97
2018-03-31T14:27:59.036Z,16.41
2018-03-31T14:30:25.881Z,15.77
2018-03-31T14:32:52.728Z,15.48
2018-03-31T14:35:19.568Z,15.10
2018-03-31T14:37:47.630Z,15.26
2018-03-31T14:40:14.446Z,15.73
2018-03-31T14:42:41.294Z,15.80
2018-03-31T14:45:08.129Z,15.83
2018-03-31T14:47:35.076Z,15.92
2018-03-31T14:50:01.929Z,16.07
2018-03-31T14:52:28.798Z,16.02
2018-03-31T14:54:55.952Z,16.08
2018-03-31T14:57:22.793Z,16.03
2018-03-31T14:59:49.650Z,16.00
2018-03-31T15:02:16.488Z,16.04
2018-03-31T15:04:43.397Z,16.25
2018-03-31T15:07:10.285Z,16.11
2018-03-31T15:09:37.160Z,16.27
2018-03-31T15:12:04.115Z,16.23
2018-03-31T15:14:30.960Z,16.18
2018-03-31T15:16:57.936Z,15.99
2018-03-31T15:19:24.772Z,16.05
2018-03-31T15:21:51.621Z,15.81
2018-03-31T15:24:18.461Z,15.78
2018-03-31T15:26:45.313Z,16.08
2018-03-31T15:29:12.184Z,16.04
2018-03-31T15:31:39.381Z,15.91
2018-03-31T15:34:07.124Z,16.12
2018-03-31T15:36:33.964Z,16.05
2018-03-31T15:39:00.821Z,16.18
2018-03-31T15:41:27.669Z,16.03
2018-03-31T15:43:55.257Z,16.03
2018-03-31T15:46:22.112Z,16.21
2018-03-31T15:48:48.972Z,16.22
2018-03-31T15:51:15.814Z,16.03
2018-03-31T15:53:42.644Z,15.79
2018-03-31T15:56:09.493Z,15.71
2018-03-31T15:58:37.323Z,15.65
2018-03-31T16:01:04.168Z,15.61
2018-03-31T16:03:32.375Z,15.54
2018-03-31T16:05:59.244Z,15.54
2018-03-31T16:08:26.085Z,15.62
2018-03-31T16:10:52.933Z,15.62
2018-03-31T16:13:19.764Z,15.66
2018-03-31T16:15:46.612Z,15.61
2018-03-31T16:18:13.443Z,15.45
2018-03-31T16:20:40.284Z,15.36
2018-03-31T16:23:07.136Z,15.17
2018-03-31T16:25:33.973Z,15.20
2018-03-31T16:28:01.265Z,15.10
2018-03-31T16:30:28.104Z,15.03
2018-03-31T16:32:55.388Z,14.92
2018-03-31T16:35:22.224Z,14.75
2018-03-31T16:37:49.077Z,14.62
2018-03-31T16:40:15.971Z,14.65
2018-03-31T16:42:42.762Z,14.69
2018-03-31T16:45:09.649Z,14.61
2018-03-31T16:47:37.169Z,14.62
2018-03-31T16:50:04.005Z,14.61
2018-03-31T16:52:30.845Z,14.65
2018-03-31T16:54:57.696Z,14.70
2018-03-31T16:57:24.573Z,14.62
2018-03-31T16:59:51.425Z,14.57
2018-03-31T17:02:18.275Z,14.52
2018-03-31T17:04:45.109Z,14.46
2018-03-31T17:07:11.956Z,14.41
2018-03-31T17:09:38.819Z,14.33
2018-03-31T17:12:05.645Z,14.10
2018-03-31T17:14:32.481Z,14.12
2018-03-31T17:16:59.392Z,14.01
2018-03-31T17:19:26.240Z,13.94
2018-03-31T17:21:53.472Z,13.80
2018-03-31T17:24:20.349Z,13.77
2018-03-31T17:26:47.201Z,13.73
2018-03-31T17:29:14.056Z,13.70
2018-03-31T17:31:40.888Z,13.65
2018-03-31T17:34:07.755Z,13.57
2018-03-31T17:36:34.591Z,13.53
2018-03-31T17:39:01.429Z,13.46
2018-03-31T17:41:28.280Z,13.43
2018-03-31T17:43:55.116Z,13.41
2018-03-31T17:46:21.964Z,13.32
2018-03-31T17:48:48.882Z,13.26
2018-03-31T17:51:15.724Z,13.24
2018-03-31T17:53:42.576Z,13.16
2018-03-31T17:56:09.446Z,13.11
2018-03-31T17:58:36.350Z,12.99
2018-03-31T18:01:03.184Z,12.89
2018-03-31T18:03:30.056Z,12.84
2018-03-31T18:05:57.689Z,12.80
2018-03-31T18:08:25.333Z,12.81
2018-03-31T18:10:53.196Z,12.70
2018-03-31T18:13:20.038Z,12.62
2018-03-31T18:15:46.885Z,12.53
2018-03-31T18:18:13.730Z,12.43
2018-03-31T18:20:40.572Z,12.33
2018-03-31T18:23:08.451Z,12.28
2018-03-31T18:25:35.321Z,12.23
2018-03-31T18:28:02.399Z,12.18
2018-03-31T18:30:29.233Z,12.23
2018-03-31T18:32:56.133Z,12.19
2018-03-31T18:35:23.027Z,12.32
2018-03-31T18:37:49.852Z,12.33
2018-03-31T18:40:17.352Z,12.34
2018-03-31T18:42:44.221Z,12.38
2018-03-31T18:45:11.064Z,12.42
2018-03-31T18:47:38.016Z,12.44
2018-03-31T18:50:04.857Z,12.46
2018-03-31T18:52:31.706Z,12.49
2018-03-31T18:54:59.285Z,12.52
2018-03-31T18:57:26.172Z,12.54
2018-03-31T18:59:53.020Z,12.51
2018-03-31T19:02:19.980Z,12.49
2018-03-31T19:04:46.813Z,12.51
2018-03-31T19:07:13.656Z,12.55
2018-03-31T19:09:40.500Z,12.56
2018-03-31T19:12:07.350Z,12.55
2018-03-31T19:14:34.317Z,12.54
2018-03-31T19:17:06.707Z,12.50
2018-03-31T19:19:33.580Z,12.51
2018-03-31T19:22:01.211Z,12.50
2018-03-31T19:24:28.063Z,12.51
2018-03-31T19:26:55.081Z,12.54
2018-03-31T19:29:22.312Z,12.50
2018-03-31T19:31:49.156Z,12.53
2018-03-31T19:34:16.128Z,12.55
2018-03-31T19:36:42.849Z,12.55
2018-03-31T19:39:09.683Z,12.30
2018-03-31T19:41:36.549Z,11.94
2018-03-31T19:44:03.407Z,11.27
2018-03-31T19:46:30.244Z,11.00
2018-03-31T19:48:57.098Z,10.67
2018-03-31T19:51:23.945Z,10.44
2018-03-31T19:53:50.815Z,10.38
2018-03-31T19:56:17.640Z,10.37
2018-03-31T19:58:44.481Z,10.30
2018-03-31T20:01:11.326Z,10.22
2018-03-31T20:03:38.174Z,10.23
2018-03-31T20:06:05.016Z,10.16
2018-03-31T20:08:31.857Z,9.98
2018-03-31T20:10:58.700Z,9.85
2018-03-31T20:13:25.552Z,9.68
2018-03-31T20:15:52.409Z,9.55
2018-03-31T20:18:19.260Z,9.35
2018-03-31T20:20:46.096Z,9.27
2018-03-31T20:23:12.936Z,9.16
2018-03-31T20:25:39.781Z,9.09
2018-03-31T20:28:06.629Z,9.06
2018-03-31T20:30:33.888Z,8.99
2018-03-31T20:33:00.724Z,8.94
2018-03-31T20:35:27.576Z,8.94
2018-03-31T20:37:54.412Z,8.97
2018-03-31T20:40:21.256Z,8.95
2018-03-31T20:42:48.203Z,8.92
2018-03-31T20:45:15.045Z,8.90
2018-03-31T20:47:41.888Z,8.92
2018-03-31T20:50:08.732Z,8.92
2018-03-31T20:52:35.572Z,8.88
2018-03-31T20:55:02.421Z,8.85
2018-03-31T20:57:29.264Z,8.77
2018-03-31T20:59:56.112Z,8.88
2018-03-31T21:02:22.954Z,8.84
2018-03-31T21:04:49.792Z,8.88
2018-03-31T21:07:16.644Z,8.83
2018-03-31T21:09:43.480Z,8.81
2018-03-31T21:12:10.320Z,8.69
2018-03-31T21:14:37.172Z,8.58
2018-03-31T21:17:04.012Z,8.56
2018-03-31T21:19:30.860Z,8.53
2018-03-31T21:21:57.698Z,8.52
2018-03-31T21:24:24.540Z,8.54
2018-03-31T21:26:51.385Z,8.51
2018-03-31T21:29:18.226Z,8.49
2018-03-31T21:31:45.074Z,8.49
2018-03-31T21:34:11.912Z,8.50
2018-03-31T21:36:38.758Z,8.58
2018-03-31T21:39:05.600Z,8.59
2018-03-31T21:41:32.448Z,8.59
2018-03-31T21:43:59.297Z,8.56
2018-03-31T21:46:26.155Z,8.67
2018-03-31T21:48:52.993Z,8.79
2018-03-31T21:51:19.832Z,8.85
2018-03-31T21:53:46.677Z,8.94
2018-03-31T21:56:13.513Z,8.95
2018-03-31T21:58:40.781Z,8.95
2018-03-31T22:01:07.623Z,8.95
2018-03-31T22:03:34.460Z,8.96
2018-03-31T22:06:01.318Z,8.97
2018-03-31T22:08:28.177Z,8.92
2018-03-31T22:10:55.028Z,8.92
2018-03-31T22:13:27.464Z,8.91
2018-03-31T22:15:54.301Z,8.81
2018-03-31T22:18:21.144Z,8.87
2018-03-31T22:20:48.002Z,8.97
2018-03-31T22:23:14.844Z,8.89
2018-03-31T22:25:41.701Z,8.90
2018-03-31T22:28:08.544Z,8.96
2018-03-31T22:30:35.388Z,8.96
2018-03-31T22:33:02.238Z,8.97
2018-03-31T22:35:29.081Z,8.94
2018-03-31T22:37:55.931Z,8.95
2018-03-31T22:40:22.768Z,8.95
2018-03-31T22:42:49.632Z,8.99
2018-03-31T22:45:16.474Z,8.91
2018-03-31T22:47:43.316Z,9.01
2018-03-31T22:50:10.156Z,9.01
2018-03-31T22:52:37.012Z,9.00
2018-03-31T22:55:03.866Z,8.96
2018-03-31T22:57:30.703Z,8.98
2018-03-31T22:59:57.569Z,9.02
2018-03-31T23:02:24.407Z,9.01
2018-03-31T23:04:51.252Z,9.00
2018-03-31T23:07:18.101Z,8.96
2018-03-31T23:09:44.929Z,8.96
2018-03-31T23:12:11.780Z,8.95
2018-03-31T23:14:38.637Z,8.94
2018-03-31T23:17:05.484Z,8.96
2018-03-31T23:19:32.348Z,8.90
2018-03-31T23:21:59.189Z,8.93
2018-03-31T23:24:26.027Z,8.91
2018-03-31T23:26:52.885Z,8.94
2018-03-31T23:29:19.992Z,8.86
2018-03-31T23:31:46.829Z,8.77
2018-03-31T23:34:13.665Z,8.80
2018-03-31T23:36:40.517Z,8.81
2018-03-31T23:39:07.360Z,8.73
2018-03-31T23:41:34.200Z,8.79
2018-03-31T23:44:01.040Z,8.76
2018-03-31T23:46:27.883Z,8.69
2018-03-31T23:48:54.721Z,8.67
2018-03-31T23:51:21.556Z,8.71
2018-03-31T23:53:48.418Z,8.74
2018-03-31T23:56:15.259Z,8.79
2018-03-31T23:58:42.092Z,8.72
